Time;durP1;ratioP1;P1;durP2;ratioP2;P2;SDS_P1;SDS_P2;PMS_P1;PMS_P2;Temp;Humidity;BMP_temperature;BMP_pressure;BME280_temperature;BME280_humidity;BME280_pressure;Samples;Min_cycle;Max_cycle;Signal;HPM_P1;HPM_P2
2022/02/09 00:00:56;;;;;;;25.77;14.32;;;8.80;99.90;;;;;;5006896;28;20040;-70
2022/02/09 00:03:25;;;;;;;26.77;13.60;;;8.80;99.90;;;;;;4996429;28;20052;-70
2022/02/09 00:06:01;;;;;;;27.65;14.48;;;8.80;99.90;;;;;;5007488;28;20034;-71
2022/02/09 00:08:27;;;;;;;26.70;14.75;;;8.80;99.90;;;;;;5011193;28;20038;-70
2022/02/09 00:10:59;;;;;;;25.95;13.95;;;8.90;99.90;;;;;;5011283;28;20038;-71
2022/02/09 00:39:16;;;;;;;22.45;13.95;;;9.10;99.90;;;;;;5010797;28;20104;-71
2022/02/09 01:44:33;;;;;;;20.15;12.15;;;9.50;99.90;;;;;;5003182;28;20050;-72
2022/02/09 01:57:46;;;;;;;27.55;13.88;;;9.50;99.90;;;;;;5003865;28;20045;-72
2022/02/09 02:00:13;;;;;;;25.58;13.60;;;9.50;99.90;;;;;;5008444;28;20080;-71
2022/02/09 02:02:38;;;;;;;24.67;12.75;;;9.50;99.90;;;;;;5006891;28;20087;-71
2022/02/09 02:05:04;;;;;;;22.73;12.85;;;9.50;99.90;;;;;;5008606;28;20455;-72
2022/02/09 02:10:06;;;;;;;28.05;13.25;;;9.50;99.90;;;;;;5008440;28;20117;-72
2022/02/09 02:12:36;;;;;;;22.42;12.95;;;9.50;99.90;;;;;;5008790;28;20026;-71
2022/02/09 02:15:28;;;;;;;23.40;13.32;;;9.50;99.90;;;;;;5002784;28;20112;-71
2022/02/09 02:17:50;;;;;;;26.63;13.75;;;9.50;99.90;;;;;;5004545;28;20069;-71
2022/02/09 02:20:35;;;;;;;29.88;14.52;;;9.50;99.90;;;;;;5009197;28;20065;-71
2022/02/09 02:23:36;;;;;;;25.50;13.50;;;9.50;99.90;;;;;;5001202;28;20027;-71
2022/02/09 02:26:16;;;;;;;21.63;11.38;;;9.60;99.90;;;;;;5006771;28;20042;-71
2022/02/09 02:39:37;;;;;;;22.67;12.60;;;9.50;99.90;;;;;;5001949;28;20050;-71
2022/02/09 03:09:04;;;;;;;20.80;12.13;;;9.60;99.90;;;;;;5008945;28;20068;-72
2022/02/09 03:14:13;;;;;;;20.92;12.50;;;9.50;99.90;;;;;;4999871;28;20057;-72
2022/02/09 03:16:43;;;;;;;24.27;12.80;;;9.50;99.90;;;;;;5000347;28;20042;-72
2022/02/09 03:27:30;;;;;;;22.05;12.45;;;9.60;99.90;;;;;;4926549;29;20067;-72
2022/02/09 03:59:28;;;;;;;32.25;14.40;;;9.50;99.90;;;;;;4890459;29;20056;-72
2022/02/09 04:01:53;;;;;;;26.95;14.63;;;9.50;99.90;;;;;;4923252;28;20103;-72
2022/02/09 04:04:19;;;;;;;26.20;14.35;;;9.50;99.90;;;;;;4948380;29;20063;-72
2022/02/09 04:06:49;;;;;;;26.52;14.43;;;9.50;99.90;;;;;;4952269;28;20024;-72
2022/02/09 04:09:17;;;;;;;25.17;14.60;;;9.50;99.90;;;;;;4950930;28;20099;-71
2022/02/09 04:14:55;;;;;;;26.00;14.43;;;9.50;99.90;;;;;;4894615;29;20104;-71
2022/02/09 04:17:38;;;;;;;28.05;14.25;;;9.50;99.90;;;;;;4892708;29;20115;-71
2022/02/09 04:20:26;;;;;;;27.90;14.30;;;9.50;99.90;;;;;;4889232;29;20063;-71
2022/02/09 04:38:54;;;;;;;25.33;13.95;;;9.40;99.90;;;;;;4909095;29;20047;-72
2022/02/09 04:57:13;;;;;;;24.55;13.07;;;9.50;99.90;;;;;;4992869;28;20068;-72
2022/02/09 05:28:45;;;;;;;26.23;13.27;;;9.30;99.90;;;;;;5003424;28;20049;-72
2022/02/09 05:31:11;;;;;;;27.50;13.55;;;9.30;99.90;;;;;;5006573;28;20029;-71
2022/02/09 05:33:37;;;;;;;29.02;14.02;;;9.30;99.90;;;;;;5009631;28;20037;-72
2022/02/09 05:36:04;;;;;;;28.85;13.93;;;9.20;99.90;;;;;;5009322;28;20432;-73
2022/02/09 05:38:30;;;;;;;27.02;13.93;;;9.20;99.90;;;;;;5010347;28;20401;-73
2022/02/09 05:40:56;;;;;;;27.63;13.80;;;9.20;99.90;;;;;;5008012;28;20397;-73
2022/02/09 05:43:24;;;;;;;29.83;13.60;;;9.20;99.90;;;;;;5004328;28;20520;-71
2022/02/09 05:46:06;;;;;;;30.75;14.38;;;9.20;99.90;;;;;;5007920;28;20092;-70
2022/02/09 05:56:31;;;;;;;28.67;13.82;;;9.20;99.90;;;;;;4999778;28;20106;-72
2022/02/09 05:59:15;;;;;;;30.15;13.23;;;9.20;99.90;;;;;;5002615;28;20052;-72
2022/02/09 06:01:43;;;;;;;24.58;12.45;;;9.20;99.90;;;;;;5004455;28;20034;-72
2022/02/09 06:04:08;;;;;;;28.15;12.40;;;9.20;99.90;;;;;;5007268;28;20064;-72
2022/02/09 06:06:34;;;;;;;23.52;12.07;;;9.20;99.90;;;;;;4998900;28;20033;-72
2022/02/09 06:09:01;;;;;;;25.77;12.35;;;9.20;99.90;;;;;;4996496;28;20033;-73
2022/02/09 06:11:33;;;;;;;26.00;12.80;;;9.20;99.90;;;;;;5010647;28;20353;-72
2022/02/09 06:22:00;;;;;;;24.50;11.47;;;9.30;99.90;;;;;;5003702;28;20110;-70
2022/02/09 06:24:26;;;;;;;26.38;12.10;;;9.30;99.90;;;;;;5004942;28;20029;-72
2022/02/09 06:26:52;;;;;;;24.25;12.02;;;9.30;99.90;;;;;;5006286;28;20026;-69
2022/02/09 06:29:18;;;;;;;26.73;12.05;;;9.30;99.90;;;;;;5001583;28;20034;-70
2022/02/09 06:31:46;;;;;;;26.38;12.55;;;9.30;99.90;;;;;;5008630;28;20026;-69
2022/02/09 06:34:13;;;;;;;22.50;11.90;;;9.20;99.90;;;;;;5007944;28;20022;-70
2022/02/09 06:36:43;;;;;;;26.50;12.20;;;9.20;99.90;;;;;;5008531;28;20026;-69
2022/02/09 06:39:10;;;;;;;25.57;11.97;;;9.20;99.90;;;;;;5006215;28;20123;-66
2022/02/09 06:41:36;;;;;;;24.50;11.85;;;9.20;99.90;;;;;;5009275;28;20026;-68
2022/02/09 06:44:03;;;;;;;24.75;12.07;;;9.20;99.90;;;;;;5007548;28;20036;-69
2022/02/09 06:46:34;;;;;;;23.90;11.52;;;9.10;99.90;;;;;;5006963;28;20040;-69
2022/02/09 06:49:05;;;;;;;22.77;11.18;;;9.20;99.90;;;;;;5005822;28;20042;-70
2022/02/09 06:51:40;;;;;;;22.50;11.23;;;9.20;99.90;;;;;;5002655;28;20532;-70
2022/02/09 06:54:15;;;;;;;22.65;11.32;;;9.20;99.90;;;;;;4999793;28;20053;-70
2022/02/09 06:59:20;;;;;;;23.15;11.77;;;9.10;99.90;;;;;;5003345;28;20020;-69
2022/02/09 07:01:47;;;;;;;24.52;11.65;;;9.10;99.90;;;;;;5002702;28;20076;-69
2022/02/09 07:04:13;;;;;;;27.38;12.43;;;9.10;99.90;;;;;;5005892;28;20547;-70
2022/02/09 07:06:39;;;;;;;23.27;11.40;;;9.10;99.90;;;;;;5007568;28;20014;-70
2022/02/09 07:09:08;;;;;;;25.45;11.82;;;9.10;99.90;;;;;;5006589;28;20055;-67
2022/02/09 07:11:34;;;;;;;26.38;11.98;;;9.10;99.90;;;;;;5006516;28;20405;-69
2022/02/09 07:13:59;;;;;;;22.58;11.82;;;9.20;99.90;;;;;;5005536;28;20030;-69
2022/02/09 07:16:26;;;;;;;25.70;12.10;;;9.20;99.90;;;;;;5003447;28;20031;-69
2022/02/09 07:18:52;;;;;;;27.67;11.82;;;9.20;99.90;;;;;;5005276;28;20034;-69
2022/02/09 07:21:24;;;;;;;25.63;14.35;;;9.20;99.90;;;;;;5007208;28;20052;-69
2022/02/09 07:23:52;;;;;;;28.23;13.50;;;9.20;99.90;;;;;;5005034;28;20425;-68
2022/02/09 07:26:26;;;;;;;23.67;11.57;;;9.20;99.90;;;;;;5008759;28;20034;-69
2022/02/09 07:28:52;;;;;;;24.33;11.93;;;9.20;99.90;;;;;;4996278;28;20452;-69
2022/02/09 07:31:19;;;;;;;25.05;11.75;;;9.20;99.90;;;;;;5007515;28;20030;-68
2022/02/09 07:33:46;;;;;;;24.50;11.88;;;9.20;99.90;;;;;;5000938;28;20109;-68
2022/02/09 07:36:13;;;;;;;24.08;11.63;;;9.20;99.90;;;;;;5005017;28;20037;-68
2022/02/09 07:38:40;;;;;;;21.23;10.70;;;9.10;99.90;;;;;;5007378;28;20527;-69
2022/02/09 07:41:06;;;;;;;22.55;11.10;;;9.10;99.90;;;;;;5003327;28;20554;-68
2022/02/09 07:43:52;;;;;;;23.77;10.68;;;9.10;99.90;;;;;;5001189;28;20072;-69
2022/02/09 07:46:30;;;;;;;26.08;11.77;;;9.10;99.90;;;;;;5005761;28;20045;-68
2022/02/09 07:49:09;;;;;;;23.77;11.10;;;9.20;99.90;;;;;;5000986;28;20113;-68
2022/02/09 07:54:04;;;;;;;22.63;11.60;;;9.20;99.90;;;;;;5006464;28;20049;-69
2022/02/09 07:56:36;;;;;;;25.17;11.73;;;9.20;99.90;;;;;;5003988;28;20125;-68
2022/02/09 07:59:04;;;;;;;24.38;11.38;;;9.20;99.90;;;;;;5003763;28;20456;-68
2022/02/09 08:01:30;;;;;;;25.13;12.13;;;9.10;99.90;;;;;;5005967;28;20030;-69
2022/02/09 08:03:57;;;;;;;25.27;11.65;;;9.20;99.90;;;;;;5006135;28;20058;-68
2022/02/09 08:06:26;;;;;;;24.73;11.60;;;9.20;99.90;;;;;;5006539;28;20041;-68
2022/02/09 08:09:02;;;;;;;21.98;11.20;;;9.20;99.90;;;;;;5009186;28;20049;-69
2022/02/09 08:11:38;;;;;;;25.05;11.55;;;9.20;99.90;;;;;;5008169;28;20544;-68
2022/02/09 08:30:21;;;;;;;23.13;11.55;;;9.20;99.90;;;;;;4912443;29;20056;-68
2022/02/09 08:32:54;;;;;;;23.20;11.40;;;9.20;99.90;;;;;;4913674;29;20044;-68
2022/02/09 08:35:20;;;;;;;20.52;11.07;;;9.20;99.90;;;;;;4911678;29;20036;-68
2022/02/09 08:37:46;;;;;;;19.75;10.00;;;9.20;99.90;;;;;;4911079;29;20054;-69
2022/02/09 08:40:16;;;;;;;22.35;11.38;;;9.20;99.90;;;;;;4910546;29;20939;-68
2022/02/09 08:42:42;;;;;;;21.65;11.43;;;9.20;99.90;;;;;;4909626;29;20068;-68
2022/02/09 08:45:09;;;;;;;24.77;11.98;;;9.20;99.90;;;;;;4912530;29;20107;-68
2022/02/09 08:47:35;;;;;;;22.80;11.38;;;9.20;99.90;;;;;;4914082;29;20043;-69
2022/02/09 08:50:03;;;;;;;25.92;11.52;;;9.20;99.90;;;;;;4908382;29;20063;-69
2022/02/09 08:52:29;;;;;;;21.50;10.88;;;9.20;99.90;;;;;;4908303;29;20180;-69
2022/02/09 08:54:55;;;;;;;20.92;11.32;;;9.30;99.90;;;;;;4910014;29;20530;-68
2022/02/09 08:57:21;;;;;;;24.13;11.90;;;9.30;99.90;;;;;;4902242;29;20148;-68
2022/02/09 08:59:49;;;;;;;23.02;11.77;;;9.30;99.90;;;;;;4972571;28;20050;-69
2022/02/09 09:02:21;;;;;;;21.50;11.27;;;9.30;99.90;;;;;;4999368;28;20033;-69
2022/02/09 09:04:52;;;;;;;23.23;10.68;;;9.40;99.90;;;;;;5002032;28;20042;-69
2022/02/09 09:07:24;;;;;;;21.42;10.43;;;9.40;99.90;;;;;;4998358;28;20413;-68
2022/02/09 09:10:00;;;;;;;20.27;10.45;;;9.50;99.90;;;;;;4997803;28;20389;-69
2022/02/09 10:04:59;;;;;;;24.48;11.07;;;10.10;99.90;;;;;;4907190;29;20047;-67
2022/02/09 10:14:13;;;;;;;25.40;11.77;;;10.20;97.90;;;;;;4908289;29;20038;-68
2022/02/09 10:33:07;;;;;;;23.65;11.55;;;10.10;98.60;;;;;;4916881;29;20435;-69
2022/02/09 10:35:37;;;;;;;22.48;11.23;;;10.20;98.70;;;;;;4983416;28;20144;-69
2022/02/09 10:38:43;;;;;;;25.15;12.07;;;10.20;98.70;;;;;;5003199;28;20034;-69
2022/02/09 10:41:15;;;;;;;22.30;11.75;;;10.20;98.90;;;;;;4927942;29;20051;-70
2022/02/09 10:43:43;;;;;;;21.05;11.25;;;10.20;98.50;;;;;;4926415;29;20031;-68
2022/02/09 10:46:16;;;;;;;24.48;12.77;;;10.20;98.70;;;;;;4925420;29;20046;-69
2022/02/09 10:48:50;;;;;;;23.33;11.30;;;10.20;98.10;;;;;;4928811;29;20031;-70
2022/02/09 10:54:23;;;;;;;20.90;10.13;;;10.30;97.40;;;;;;4926971;29;20042;-68
2022/02/09 10:56:59;;;;;;;20.35;10.65;;;10.30;97.20;;;;;;4931963;29;20039;-69
2022/02/09 10:59:31;;;;;;;21.58;11.95;;;10.30;97.20;;;;;;4929930;29;20060;-70
2022/02/09 11:02:00;;;;;;;27.55;12.13;;;10.40;97.30;;;;;;4926354;29;20597;-73
2022/02/09 11:04:26;;;;;;;24.42;12.57;;;10.40;97.20;;;;;;4923772;29;20139;-73
2022/02/09 11:06:52;;;;;;;23.38;11.52;;;10.50;97.20;;;;;;4924448;29;20111;-73
2022/02/09 11:09:21;;;;;;;27.20;12.68;;;10.50;97.20;;;;;;4920091;29;20078;-74
2022/02/09 11:11:47;;;;;;;22.38;10.98;;;10.50;97.10;;;;;;4957174;28;20145;-74
2022/02/09 11:14:21;;;;;;;20.95;11.63;;;10.50;97.10;;;;;;5006710;28;20072;-73
2022/02/09 11:16:52;;;;;;;26.60;14.43;;;10.50;96.90;;;;;;5001240;28;20066;-72
2022/02/09 11:19:25;;;;;;;28.10;14.63;;;10.50;96.90;;;;;;5002692;28;20464;-73
2022/02/09 11:22:04;;;;;;;29.00;14.70;;;10.50;96.50;;;;;;4993530;28;20033;-72
2022/02/09 11:24:31;;;;;;;24.27;12.88;;;10.50;96.40;;;;;;4999178;28;20026;-71
2022/02/09 11:27:18;;;;;;;23.77;11.98;;;10.50;96.50;;;;;;5005195;28;20503;-70
2022/02/09 11:35:06;;;;;;;31.38;15.20;;;10.50;96.30;;;;;;4998549;28;20037;-72
2022/02/09 11:43:33;;;;;;;37.70;19.48;;;10.70;96.50;;;;;;4934539;29;20043;-71
2022/02/09 11:57:08;;;;;;;35.97;17.83;;;10.70;96.10;;;;;;4886652;29;20123;-72
2022/02/09 12:10:48;;;;;;;32.00;16.30;;;10.80;95.60;;;;;;4888055;29;20625;-70
2022/02/09 12:13:42;;;;;;;27.10;15.27;;;10.90;94.60;;;;;;4883967;29;20056;-71
2022/02/09 12:16:51;;;;;;;28.40;14.27;;;11.00;94.70;;;;;;4890103;29;20488;-69
2022/02/09 12:19:32;;;;;;;30.20;14.77;;;11.00;94.80;;;;;;4892774;29;20056;-71
2022/02/09 12:24:34;;;;;;;27.23;13.52;;;11.10;94.60;;;;;;4946806;28;19958;-71
2022/02/09 12:27:06;;;;;;;24.38;13.20;;;11.10;94.50;;;;;;4947027;28;20031;-73
2022/02/09 12:29:47;;;;;;;28.60;14.10;;;11.10;94.20;;;;;;4949269;29;20043;-73
2022/02/09 12:32:16;;;;;;;23.77;13.32;;;11.10;94.20;;;;;;4999342;28;20045;-73
2022/02/09 12:35:00;;;;;;;27.08;13.90;;;11.00;94.40;;;;;;5009533;28;20041;-73
2022/02/09 12:37:34;;;;;;;32.40;15.20;;;10.90;94.50;;;;;;5010136;28;20049;-73
2022/02/09 12:40:07;;;;;;;23.50;13.00;;;10.90;94.70;;;;;;5007364;28;20038;-73
2022/02/09 12:42:45;;;;;;;29.77;13.30;;;10.90;94.80;;;;;;4995621;28;20022;-73
2022/02/09 12:45:14;;;;;;;23.90;12.63;;;11.00;94.50;;;;;;4995029;28;20030;-73
2022/02/09 12:47:52;;;;;;;23.55;12.35;;;10.90;94.60;;;;;;4997285;28;20477;-73
2022/02/09 12:50:22;;;;;;;28.58;14.07;;;11.00;94.60;;;;;;4998611;28;20065;-73
2022/02/09 12:52:49;;;;;;;24.88;13.77;;;11.00;94.30;;;;;;4998279;28;20042;-73
2022/02/09 12:55:23;;;;;;;23.95;12.23;;;11.10;94.10;;;;;;4990900;28;20117;-72
2022/02/09 12:57:55;;;;;;;21.65;11.65;;;11.10;94.00;;;;;;5009689;28;20053;-70
2022/02/09 13:00:27;;;;;;;22.00;12.57;;;11.10;94.00;;;;;;5004559;28;20034;-72
2022/02/09 13:02:55;;;;;;;27.20;14.85;;;11.10;94.00;;;;;;5008471;28;20026;-72
2022/02/09 13:05:21;;;;;;;28.42;14.55;;;11.10;94.00;;;;;;4997612;28;20050;-72
2022/02/09 13:07:58;;;;;;;29.75;13.95;;;11.10;93.90;;;;;;4998608;28;20069;-72
2022/02/09 13:10:25;;;;;;;32.00;14.55;;;11.10;93.80;;;;;;4998813;28;20053;-72
2022/02/09 13:12:53;;;;;;;28.50;15.50;;;11.10;93.50;;;;;;5008641;28;20416;-72
2022/02/09 13:15:24;;;;;;;27.42;14.95;;;11.20;93.50;;;;;;4992532;28;20080;-74
2022/02/09 13:25:56;;;;;;;30.02;16.50;;;11.10;93.40;;;;;;4999342;28;20543;-71
2022/02/09 14:03:48;;;;;;;37.40;16.60;;;11.10;93.60;;;;;;5006126;28;20037;-72
2022/02/09 14:16:58;;;;;;;29.85;14.63;;;10.90;93.60;;;;;;5001458;28;20034;-77
2022/02/09 14:57:14;;;;;;;32.90;17.77;;;10.50;95.10;;;;;;5008159;28;20036;-72
2022/02/09 15:02:12;;;;;;;30.02;16.80;;;10.40;95.40;;;;;;5006465;28;20942;-72
2022/02/09 15:07:44;;;;;;;31.27;16.17;;;10.40;95.40;;;;;;4915009;29;20439;-70
2022/02/09 15:13:24;;;;;;;24.02;12.13;;;10.40;95.40;;;;;;4908936;29;20095;-74
2022/02/09 15:18:21;;;;;;;34.33;16.88;;;10.40;95.90;;;;;;4910720;29;20088;-73
2022/02/09 15:21:12;;;;;;;33.95;15.95;;;10.30;96.00;;;;;;4912834;29;20446;-72
2022/02/09 15:23:33;;;;;;;26.02;13.52;;;10.30;96.50;;;;;;4915394;29;20200;-72
2022/02/09 15:26:01;;;;;;;27.73;14.45;;;10.30;96.50;;;;;;4910284;29;20117;-73
2022/02/09 15:28:27;;;;;;;26.58;14.40;;;10.20;96.60;;;;;;4907654;29;20028;-73
2022/02/09 15:31:05;;;;;;;65.53;42.25;;;10.20;96.80;;;;;;4906605;29;20039;-73
2022/02/09 15:33:39;;;;;;;41.05;21.52;;;10.10;96.90;;;;;;4892325;29;20037;-73
2022/02/09 15:36:08;;;;;;;71.78;36.85;;;10.10;97.10;;;;;;4907960;29;20037;-73
2022/02/09 15:38:45;;;;;;;26.23;14.48;;;10.00;96.80;;;;;;4921300;29;20051;-73
2022/02/09 15:41:22;;;;;;;30.70;16.30;;;10.00;96.80;;;;;;4909083;29;20040;-72
2022/02/09 16:05:41;;;;;;;28.67;15.50;;;10.00;96.80;;;;;;5007431;28;20041;-74
2022/02/09 16:08:32;;;;;;;28.55;14.15;;;10.00;96.90;;;;;;4995858;28;20128;-73
2022/02/09 16:24:29;;;;;;;21.75;11.32;;;9.90;96.70;;;;;;5000099;28;20070;-71
2022/02/09 16:46:14;;;;;;;20.60;10.93;;;9.80;96.70;;;;;;5003876;28;20760;-72
2022/02/09 16:48:47;;;;;;;23.75;12.18;;;9.80;96.70;;;;;;5006216;28;20030;-72
2022/02/09 16:51:18;;;;;;;22.30;11.75;;;9.80;96.60;;;;;;5008973;28;20429;-71
2022/02/09 16:56:27;;;;;;;21.20;11.30;;;9.80;96.60;;;;;;5005552;28;20038;-71
2022/02/09 17:15:40;;;;;;;22.08;11.75;;;9.80;97.10;;;;;;4936760;28;20073;-71
2022/02/09 17:20:51;;;;;;;21.85;11.15;;;9.80;97.00;;;;;;4962607;28;20161;-71
2022/02/09 17:23:17;;;;;;;20.65;10.82;;;9.70;96.80;;;;;;4952770;28;20039;-71
2022/02/09 17:25:44;;;;;;;19.80;10.98;;;9.70;96.70;;;;;;4952904;28;20051;-72
2022/02/09 17:28:14;;;;;;;20.65;11.82;;;9.70;96.60;;;;;;4953351;28;20037;-71
2022/02/09 17:36:03;;;;;;;22.58;11.32;;;9.60;96.40;;;;;;4942278;29;20031;-72
2022/02/09 17:38:43;;;;;;;22.95;12.32;;;9.60;96.60;;;;;;4974633;28;20160;-72
2022/02/09 17:57:45;;;;;;;24.85;12.93;;;9.40;97.60;;;;;;4999581;28;20030;-73
2022/02/09 18:00:16;;;;;;;23.88;13.30;;;9.40;97.40;;;;;;5007056;28;20033;-73
2022/02/09 18:02:53;;;;;;;26.02;14.32;;;9.40;97.70;;;;;;5006126;28;20018;-73
2022/02/09 18:08:04;;;;;;;27.60;15.35;;;9.30;97.60;;;;;;5003591;28;20048;-72
2022/02/09 18:15:58;;;;;;;25.80;14.48;;;9.20;98.40;;;;;;5001628;28;20040;-72
2022/02/09 18:29:19;;;;;;;31.92;15.85;;;9.10;98.60;;;;;;5006445;28;20029;-75
2022/02/09 18:32:51;;;;;;;34.05;17.00;;;9.10;98.90;;;;;;5007732;28;20029;-73
2022/02/09 18:38:19;;;;;;;34.83;17.88;;;9.00;99.20;;;;;;5005158;28;20025;-73
2022/02/09 18:48:28;;;;;;;32.25;17.50;;;8.90;99.90;;;;;;5006840;28;20040;-76
2022/02/09 19:15:05;;;;;;;39.03;20.85;;;8.90;99.90;;;;;;5008411;28;20115;-74
2022/02/09 19:30:48;;;;;;;42.05;22.05;;;9.00;99.90;;;;;;5005332;28;20030;-76
2022/02/09 19:33:32;;;;;;;41.83;21.70;;;9.10;99.90;;;;;;4986098;28;20144;-75
2022/02/09 19:44:55;;;;;;;43.75;23.67;;;9.10;99.90;;;;;;5003185;28;20050;-76
2022/02/09 19:46:59;;;;;;;43.13;22.58;;;9.10;99.90;;;;;;5001446;28;20068;-77
2022/02/09 19:54:47;;;;;;;52.20;29.58;;;9.10;99.90;;;;;;5000308;28;20023;-77
2022/02/09 19:57:14;;;;;;;46.58;26.75;;;9.10;99.90;;;;;;5003707;28;20060;-77
2022/02/09 19:59:41;;;;;;;42.42;22.83;;;9.10;99.90;;;;;;5005629;28;20056;-76
2022/02/09 20:02:11;;;;;;;44.65;23.48;;;9.10;99.90;;;;;;4999342;28;20821;-76
2022/02/09 20:04:38;;;;;;;39.33;22.95;;;9.10;99.90;;;;;;5000060;28;20065;-76
2022/02/09 20:07:06;;;;;;;41.15;21.77;;;9.10;99.90;;;;;;4994721;28;20029;-76
2022/02/09 20:09:33;;;;;;;40.58;22.10;;;9.10;99.90;;;;;;4985009;28;20105;-76
2022/02/09 20:11:59;;;;;;;42.33;21.40;;;9.10;99.90;;;;;;5004828;28;20018;-76
2022/02/09 20:14:26;;;;;;;40.75;21.55;;;9.10;99.90;;;;;;5006165;28;20037;-76
2022/02/09 20:16:52;;;;;;;36.35;20.58;;;9.10;99.90;;;;;;4999658;28;20465;-77
2022/02/09 20:19:18;;;;;;;35.30;19.92;;;9.10;99.90;;;;;;5002352;28;20057;-76
2022/02/09 20:21:44;;;;;;;38.30;20.55;;;9.10;99.90;;;;;;4996884;28;20108;-77
2022/02/09 20:24:14;;;;;;;35.92;19.40;;;9.10;99.90;;;;;;5008327;28;20033;-76
2022/02/09 20:26:41;;;;;;;33.70;19.50;;;9.10;99.90;;;;;;4995344;28;20057;-76
2022/02/09 20:29:13;;;;;;;38.08;20.15;;;9.10;99.90;;;;;;4999875;28;20052;-75
2022/02/09 20:31:59;;;;;;;34.90;19.42;;;9.10;99.90;;;;;;5006661;28;20496;-76
2022/02/09 20:34:34;;;;;;;40.63;21.00;;;9.10;99.90;;;;;;5005015;28;20409;-76
2022/02/09 20:37:02;;;;;;;40.13;21.30;;;9.10;99.90;;;;;;5004784;28;20022;-76
2022/02/09 20:39:33;;;;;;;42.10;22.70;;;9.00;99.90;;;;;;5001526;28;20125;-76
2022/02/09 20:42:01;;;;;;;42.30;22.05;;;9.10;99.90;;;;;;5010286;28;20033;-76
2022/02/09 20:44:40;;;;;;;44.75;22.27;;;9.10;99.90;;;;;;5009303;28;20030;-76
2022/02/09 20:47:09;;;;;;;52.97;25.40;;;9.10;99.90;;;;;;5008253;28;20092;-76
2022/02/09 20:49:35;;;;;;;47.72;24.73;;;9.10;99.90;;;;;;4992082;28;20030;-76
2022/02/09 20:52:01;;;;;;;50.63;25.15;;;9.10;99.90;;;;;;5008569;28;20036;-75
2022/02/09 20:54:27;;;;;;;50.78;24.88;;;9.10;99.90;;;;;;5007969;28;20054;-76
2022/02/09 20:56:54;;;;;;;53.58;26.00;;;9.10;99.90;;;;;;5011872;28;20037;-75
2022/02/09 20:59:20;;;;;;;57.08;26.65;;;9.10;99.90;;;;;;5004577;28;20052;-75
2022/02/09 21:02:03;;;;;;;56.35;25.88;;;9.10;99.90;;;;;;5007384;28;20109;-75
2022/02/09 21:04:30;;;;;;;57.38;26.75;;;9.10;99.90;;;;;;5003392;28;20141;-75
2022/02/09 21:07:06;;;;;;;52.80;25.65;;;9.10;99.90;;;;;;5007220;28;20423;-75
2022/02/09 21:09:50;;;;;;;54.22;27.13;;;9.10;99.90;;;;;;4999375;28;20121;-75
2022/02/09 21:12:30;;;;;;;54.50;26.30;;;9.10;99.90;;;;;;5006786;28;20049;-75
2022/02/09 21:16:13;;;;;;;59.97;26.38;;;9.10;99.90;;;;;;5007931;28;20925;-75
2022/02/09 21:18:29;;;;;;;52.88;24.95;;;9.10;99.90;;;;;;4974986;28;20041;-75
2022/02/09 21:56:11;;;;;;;40.08;20.67;;;9.10;99.90;;;;;;4923159;29;20122;-78
2022/02/09 21:59:17;;;;;;;36.72;19.85;;;9.00;99.90;;;;;;4927893;29;20031;-78
2022/02/09 22:20:24;;;;;;;42.58;19.48;;;9.00;99.90;;;;;;5008470;28;20112;-77
2022/02/09 22:23:18;;;;;;;38.60;19.25;;;9.00;99.90;;;;;;5006725;28;20117;-77
2022/02/09 22:28:52;;;;;;;37.85;18.77;;;8.90;99.90;;;;;;4997794;28;20084;-77
2022/02/09 22:55:44;;;;;;;41.10;19.70;;;8.80;99.90;;;;;;4986419;28;20061;-77
2022/02/09 22:58:12;;;;;;;40.80;20.63;;;8.90;99.90;;;;;;4985327;28;20552;-77
2022/02/09 23:03:49;;;;;;;43.58;21.08;;;8.90;99.90;;;;;;4984050;28;20061;-77
